Terminal Aerodrome Forecast
Issued by NWS Tuscon, AZ

Home | Current Version | Previous Version | Text Only | Print | Product List | Glossary On
Versions: 1 2 3 4 5 6 7 8 9 10 11 12 13 14 15 16 17 18 19 20 21
000
FTUS45 KTWC 271100
TAFTUS
TAF
KTUS 271132Z 2712/2812 14005KT P6SM SCT180
     FM271600 VRB04KT P6SM FEW080
     FM272000 32006KT P6SM SCT080
     FM280600 15006KT P6SM SKC=

USA.gov is the U.S. government's official web portal to all federal, state and local government web resources and services.